Ana Sayfa
METAR-TAF:

METAR-TAF

Havaalanları :

Şarm El-Şeyh, Mısır

Enlem: 27-58N, Boylam: 034-23E, yükseklik: 50 m

Güncel hava durumu gözlemi

Rapor saat 09:00 UTC de 1 saat ve 4 dakika önce yapıldı.
Rüzgar kuzey/kuzeybatıdan 14 kt
Sıcaklık 38°C
Nem 21%
Basınç 1005 hPa
Görüş mesafesi 10 km veya daha fazla
1500 m altında bulut yok ve kümülonimbus yok

METAR: HESH 250900Z 34014KT CAVOK 38/12 Q1005 NOSIG

Saat: 12:04 (10:04 UTC)

Tahmin

Rapor saat 05:00 UTC de 5 saat ve 4 dakika önce yapıldı.
Ayın 25'si saat 06 UTC'den ayın 26'si saat 12 UTC'ye kadar geçerli Tahmin
Rüzgar kuzey/kuzeydoğudan 12 kt
Görüş mesafesi 10 km veya daha fazla
1500 m altında bulut yok ve kümülonimbus yok

TAF: HESH 250500Z 2506/2612 02012KT CAVOK

4.000'den fazla havaalanı için hava durumu gözlemleri ve tahminleri (METAR ve TAF raporları).

Kullanılabilir istasyonlar harita üzerinde sarı ve kırmızı noktalarla gösterilir.

İstasyonun adını görmek için fareyi noktanın üzerinde gezdirin.

Sonrasında hava gözlem ve tahminlerini görmek için tıklayın.

Haritayı değiştirmek için: yaklaştırmak için siyah artı işaretli yeşil düğmeye ve uzaklaştırmak için de eksi işaretli düğmeye hızla tıklayın; bitişik haritalar için yeşil okları kullanın.


METAR-TAF: